首页
METAR-TAF:

METAR-TAF

机场 :

拉纳卡, 塞浦路斯

拉纳卡国际机场

纬度: 34-53N, 经度: 033-38E, 海拔: 2米

当前天气观测

该预报发布于21分钟前的22:00 UTC
风速12节,风向
温度 24°C
湿度 27%
气压 1009 hPa
能见度10公里或以上
1500米以下无云,无积雨云

METAR: LCLK 252200Z 35012KT CAVOK 24/04 Q1009 NOSIG

时间: 01:21 (22:21 UTC)

预报

该预报发布于4小时和51分钟前的17:30 UTC
预报有效从25日的 18点(UTC)到 26日的 18点(UTC)
风速8节,风向东北
能见度10公里或以上
少量云层高于4000英尺
成为
从 26日的 06点(UTC)到 26日的 10点(UTC)
风速11节,风向
成为
从 26日的 14点(UTC)到 26日的 18点(UTC)
风速7节,风向

TAF: LCLK 251730Z 2518/2618 04008KT 9999 FEW040 BECMG 2606/2610 10011KT BECMG 2614/2618 35007KT

超过4000个机场的气象观测和天气预报(METAR&TAF报告)。

可查询的气象台以黄色和红色小点在地图上表示。

将鼠标移到小点上方,可查看气象台名称。

然后点击查看天气观测和预报。

如需切换地图:点击带黑十字的绿色按钮放大地图;点击带横线的绿色按钮缩小地图;或者点击绿色箭头查看邻近地区的地图。


METAR-TAF: